createdAt,value
2023-01-13T00:00:51.708Z,7.86
2023-01-13T00:03:18.385Z,7.92
2023-01-13T00:05:45.063Z,7.86
2023-01-13T00:08:11.812Z,7.95
2023-01-13T00:10:38.547Z,7.93
2023-01-13T00:13:05.967Z,8.02
2023-01-13T00:15:33.605Z,8.06
2023-01-13T00:18:00.311Z,8.01
2023-01-13T00:20:27.137Z,8.10
2023-01-13T00:22:53.877Z,8.08
2023-01-13T00:25:20.534Z,8.08
2023-01-13T00:27:47.189Z,8.11
2023-01-13T00:30:14.203Z,8.11
2023-01-13T00:32:40.925Z,8.16
2023-01-13T00:35:08.043Z,8.16
2023-01-13T00:37:38.792Z,8.18
2023-01-13T00:40:06.153Z,8.04
2023-01-13T00:42:51.448Z,8.22
2023-01-13T00:45:18.037Z,8.16
2023-01-13T00:47:44.727Z,8.21
2023-01-13T00:50:11.420Z,8.23
2023-01-13T00:52:38.001Z,8.24
2023-01-13T00:55:05.034Z,8.19
2023-01-13T00:57:31.734Z,8.27
2023-01-13T00:59:58.477Z,8.17
2023-01-13T01:02:25.363Z,8.25
2023-01-13T01:04:52.353Z,8.21
2023-01-13T01:07:19.084Z,8.24
2023-01-13T01:09:45.745Z,8.15
2023-01-13T01:12:12.414Z,8.22
2023-01-13T01:14:39.275Z,8.29
2023-01-13T01:17:05.991Z,8.28
2023-01-13T01:19:32.701Z,8.36
2023-01-13T01:21:59.367Z,8.37
2023-01-13T01:24:25.989Z,8.38
2023-01-13T01:26:52.677Z,8.36
2023-01-13T01:29:19.343Z,8.29
2023-01-13T01:31:46.154Z,8.31
2023-01-13T01:34:13.043Z,8.40
2023-01-13T01:36:39.939Z,8.41
2023-01-13T01:39:06.985Z,8.47
2023-01-13T01:41:36.422Z,8.47
2023-01-13T01:44:51.395Z,8.49
2023-01-13T01:47:18.764Z,8.52
2023-01-13T01:49:46.391Z,8.51
2023-01-13T01:52:40.516Z,8.51
2023-01-13T01:55:14.427Z,8.48
2023-01-13T01:58:00.674Z,8.46
2023-01-13T02:00:29.666Z,8.40
2023-01-13T02:02:57.323Z,8.48
2023-01-13T02:05:24.073Z,8.48
2023-01-13T02:07:53.895Z,8.61
2023-01-13T02:10:23.991Z,8.63
2023-01-13T02:12:52.398Z,8.56
2023-01-13T02:15:25.958Z,8.54
2023-01-13T02:18:03.441Z,8.58
2023-01-13T02:20:52.573Z,8.62
2023-01-13T02:24:16.490Z,8.64
2023-01-13T02:27:26.828Z,8.58
2023-01-13T02:30:18.398Z,8.64
2023-01-13T02:33:00.192Z,8.64
2023-01-13T02:35:32.617Z,8.66
2023-01-13T02:38:01.525Z,8.54
2023-01-13T02:40:45.843Z,8.55
2023-01-13T02:43:39.944Z,8.70
2023-01-13T02:46:15.502Z,8.71
2023-01-13T02:48:45.780Z,8.62
2023-01-13T02:51:17.502Z,8.73
2023-01-13T02:53:51.239Z,8.70
2023-01-13T02:56:19.596Z,8.67
2023-01-13T02:58:48.517Z,8.68
2023-01-13T03:01:15.286Z,8.68
2023-01-13T03:03:42.141Z,8.74
2023-01-13T03:06:29.919Z,8.68
2023-01-13T03:09:08.735Z,8.73
2023-01-13T03:11:46.267Z,8.79
2023-01-13T03:14:40.908Z,8.74
2023-01-13T03:17:16.371Z,8.81
2023-01-13T03:19:49.195Z,8.83
2023-01-13T03:22:42.448Z,8.77
2023-01-13T03:25:18.497Z,8.77
2023-01-13T03:27:51.356Z,8.86
2023-01-13T03:30:24.644Z,8.86
2023-01-13T03:33:00.000Z,8.83
2023-01-13T03:35:30.850Z,8.86
2023-01-13T03:38:09.535Z,8.87
2023-01-13T03:40:49.944Z,8.86
2023-01-13T03:43:41.557Z,8.89
2023-01-13T03:46:14.895Z,8.85
2023-01-13T03:48:45.844Z,8.94
2023-01-13T03:51:18.380Z,8.94
2023-01-13T03:53:54.801Z,8.90
2023-01-13T03:56:27.784Z,8.97
2023-01-13T03:58:54.867Z,8.97
2023-01-13T04:01:27.038Z,8.87
2023-01-13T04:04:05.467Z,9.01
2023-01-13T04:06:50.623Z,9.02
2023-01-13T04:09:33.431Z,9.06
2023-01-13T04:12:17.285Z,9.06
2023-01-13T04:14:45.332Z,8.94
2023-01-13T04:17:12.524Z,9.02
2023-01-13T04:19:39.214Z,9.08
2023-01-13T04:22:05.924Z,9.09
2023-01-13T04:24:32.647Z,8.98
2023-01-13T04:26:59.484Z,9.18
2023-01-13T04:29:26.235Z,9.17
2023-01-13T04:31:52.915Z,9.11
2023-01-13T04:34:19.894Z,9.09
2023-01-13T04:36:46.679Z,9.23
2023-01-13T04:39:13.423Z,9.16
2023-01-13T04:41:58.375Z,9.22
2023-01-13T04:44:26.259Z,9.16
2023-01-13T04:46:53.388Z,9.25
2023-01-13T04:49:20.297Z,9.27
2023-01-13T04:51:47.022Z,9.30
2023-01-13T04:54:14.030Z,9.28
2023-01-13T04:56:40.696Z,9.27
2023-01-13T04:59:07.493Z,9.30
2023-01-13T05:01:34.302Z,9.30
2023-01-13T05:04:01.131Z,9.32
2023-01-13T05:06:27.786Z,9.38
2023-01-13T05:08:54.463Z,9.34
2023-01-13T05:11:39.842Z,9.42
2023-01-13T05:14:25.058Z,9.33
2023-01-13T05:17:00.610Z,9.36
2023-01-13T05:19:29.477Z,9.45
2023-01-13T05:22:14.658Z,9.42
2023-01-13T05:24:59.909Z,9.41
2023-01-13T05:27:26.902Z,9.44
2023-01-13T05:29:54.840Z,9.40
2023-01-13T05:32:22.199Z,9.41
2023-01-13T05:34:49.573Z,9.47
2023-01-13T05:37:16.852Z,9.54
2023-01-13T05:40:02.328Z,9.51
2023-01-13T05:42:47.628Z,9.48
2023-01-13T05:45:14.437Z,9.57
2023-01-13T05:47:41.174Z,9.51
2023-01-13T05:50:09.004Z,9.62
2023-01-13T05:52:36.032Z,9.53
2023-01-13T05:55:03.029Z,9.46
2023-01-13T05:57:29.913Z,9.55
2023-01-13T05:59:56.597Z,9.55
2023-01-13T06:02:23.309Z,9.61
2023-01-13T06:04:49.946Z,9.65
2023-01-13T06:07:19.318Z,9.67
2023-01-13T06:09:46.814Z,9.65
2023-01-13T06:12:14.391Z,9.61
2023-01-13T06:14:41.169Z,9.63
2023-01-13T06:17:13.620Z,9.71
2023-01-13T06:19:40.784Z,9.70
2023-01-13T06:22:31.132Z,9.77
2023-01-13T06:24:58.567Z,9.81
2023-01-13T06:27:25.603Z,9.63
2023-01-13T06:29:52.398Z,9.86
2023-01-13T06:32:24.171Z,9.89
2023-01-13T06:34:56.823Z,9.89
2023-01-13T06:37:26.268Z,9.80
2023-01-13T06:39:58.598Z,9.85
2023-01-13T06:42:49.769Z,9.93
2023-01-13T06:45:16.824Z,9.98
2023-01-13T06:47:44.155Z,9.93
2023-01-13T06:50:11.532Z,10.03
2023-01-13T06:52:38.428Z,9.96
2023-01-13T06:55:05.687Z,9.77
2023-01-13T06:57:33.658Z,9.71
2023-01-13T07:00:00.358Z,9.83
2023-01-13T07:02:28.348Z,9.82
2023-01-13T07:04:55.211Z,9.76
2023-01-13T07:07:21.896Z,9.64
2023-01-13T07:09:48.651Z,9.74
2023-01-13T07:12:15.297Z,9.78
2023-01-13T07:15:00.668Z,9.74
2023-01-13T07:17:27.316Z,9.74
2023-01-13T07:19:54.705Z,9.74
2023-01-13T07:22:21.566Z,9.66
2023-01-13T07:24:48.254Z,9.65
2023-01-13T07:27:14.991Z,9.72
2023-01-13T07:29:41.809Z,9.74
2023-01-13T07:32:08.639Z,9.54
2023-01-13T07:34:35.935Z,9.78
2023-01-13T07:37:02.623Z,9.73
2023-01-13T07:39:29.326Z,9.81
2023-01-13T07:42:14.606Z,10.01
2023-01-13T07:44:41.310Z,9.87
2023-01-13T07:47:10.522Z,9.78
2023-01-13T07:49:37.460Z,9.75
2023-01-13T07:52:04.267Z,9.66
2023-01-13T07:54:40.265Z,9.58
2023-01-13T07:57:09.025Z,9.69
2023-01-13T07:59:35.669Z,9.72
2023-01-13T08:02:02.650Z,9.69
2023-01-13T08:04:29.359Z,9.73
2023-01-13T08:06:56.006Z,9.76
2023-01-13T08:09:22.697Z,9.72
2023-01-13T08:12:09.451Z,9.76
2023-01-13T08:14:36.330Z,9.70
2023-01-13T08:17:02.914Z,9.76
2023-01-13T08:19:29.578Z,9.78
2023-01-13T08:21:57.238Z,9.67
2023-01-13T08:24:23.918Z,9.76
2023-01-13T08:26:50.549Z,9.76
2023-01-13T08:29:17.363Z,9.78
2023-01-13T08:31:44.239Z,9.84
2023-01-13T08:34:10.951Z,9.82
2023-01-13T08:36:37.588Z,9.77
2023-01-13T08:39:04.420Z,9.88
2023-01-13T08:41:49.787Z,9.87
2023-01-13T08:44:16.466Z,9.92
2023-01-13T08:46:43.127Z,9.95
2023-01-13T08:49:09.885Z,9.91
2023-01-13T08:51:36.615Z,9.93
2023-01-13T08:54:04.019Z,9.91
2023-01-13T08:56:34.155Z,9.96
2023-01-13T08:59:02.772Z,10.01
2023-01-13T09:01:29.620Z,9.95
2023-01-13T09:03:56.480Z,10.04
2023-01-13T09:06:23.262Z,10.04
2023-01-13T09:08:49.946Z,10.08
2023-01-13T09:11:44.444Z,10.11
2023-01-13T09:14:11.147Z,10.10
2023-01-13T09:16:37.798Z,10.08
2023-01-13T09:19:04.522Z,10.09
2023-01-13T09:21:31.147Z,10.17
2023-01-13T09:23:57.930Z,10.22
2023-01-13T09:26:24.668Z,10.24
2023-01-13T09:28:51.364Z,10.30
2023-01-13T09:31:18.139Z,10.29
2023-01-13T09:34:03.103Z,10.31
2023-01-13T09:36:29.783Z,10.35
2023-01-13T09:38:56.494Z,10.39
2023-01-13T09:41:44.369Z,10.41
2023-01-13T09:44:21.624Z,10.42
2023-01-13T09:46:53.411Z,10.46
2023-01-13T09:49:38.797Z,10.47
2023-01-13T09:52:19.497Z,10.55
2023-01-13T09:54:53.721Z,10.57
2023-01-13T09:57:21.372Z,10.60
2023-01-13T09:59:48.530Z,10.65
2023-01-13T10:02:32.533Z,10.70
2023-01-13T10:05:05.596Z,10.68
2023-01-13T10:07:37.099Z,10.64
2023-01-13T10:10:09.262Z,10.74
2023-01-13T10:12:54.754Z,10.71
2023-01-13T10:15:26.057Z,10.79
2023-01-13T10:18:01.257Z,10.77
2023-01-13T10:20:56.693Z,10.83
2023-01-13T10:23:52.439Z,10.80
2023-01-13T10:26:34.388Z,10.81
2023-01-13T10:29:01.049Z,10.78
2023-01-13T10:31:27.738Z,10.87
2023-01-13T10:34:04.254Z,10.83
2023-01-13T10:36:31.088Z,10.83
2023-01-13T10:39:09.039Z,10.92
2023-01-13T10:41:36.391Z,10.98
2023-01-13T10:44:17.161Z,11.01
2023-01-13T10:46:53.590Z,11.07
2023-01-13T10:49:33.687Z,11.13
2023-01-13T10:52:02.125Z,11.20
2023-01-13T10:54:29.405Z,11.27
2023-01-13T10:57:19.996Z,11.27
2023-01-13T10:59:47.494Z,11.36
2023-01-13T11:02:25.336Z,11.46
2023-01-13T11:04:53.045Z,11.55
2023-01-13T11:07:38.864Z,11.59
2023-01-13T11:10:28.036Z,11.49
2023-01-13T11:13:12.676Z,11.66
2023-01-13T11:15:57.711Z,11.71
2023-01-13T11:19:02.736Z,11.65
2023-01-13T11:21:36.869Z,11.51
2023-01-13T11:24:20.254Z,11.64
2023-01-13T11:27:13.386Z,11.45
2023-01-13T11:30:21.169Z,11.10
2023-01-13T11:33:09.959Z,11.10
2023-01-13T11:36:04.225Z,11.06
2023-01-13T11:38:38.521Z,11.08
2023-01-13T11:41:15.646Z,11.07
2023-01-13T11:44:06.530Z,11.05
2023-01-13T11:46:33.234Z,10.97
2023-01-13T11:49:01.090Z,11.00
2023-01-13T11:51:34.599Z,11.05
2023-01-13T11:54:40.135Z,11.00
2023-01-13T11:57:37.772Z,11.02
2023-01-13T12:00:33.552Z,11.03
2023-01-13T12:03:03.122Z,11.02
2023-01-13T12:05:44.698Z,11.02
2023-01-13T12:08:22.905Z,11.06
2023-01-13T12:11:00.237Z,11.01
2023-01-13T12:13:44.849Z,11.00
2023-01-13T12:16:17.452Z,11.00
2023-01-13T12:18:59.194Z,11.00
2023-01-13T12:21:40.305Z,11.05
2023-01-13T12:24:24.952Z,11.07
2023-01-13T12:26:58.755Z,10.94
2023-01-13T12:29:35.108Z,10.91
2023-01-13T12:32:06.083Z,10.94
2023-01-13T12:35:05.299Z,10.77
2023-01-13T12:37:44.985Z,10.73
2023-01-13T12:40:54.596Z,10.72
2023-01-13T12:43:43.360Z,10.60
2023-01-13T12:46:19.178Z,10.64
2023-01-13T12:48:46.876Z,10.58
2023-01-13T12:51:28.966Z,10.54
2023-01-13T12:53:56.552Z,10.47
2023-01-13T12:56:43.891Z,10.47
2023-01-13T12:59:16.517Z,10.40
2023-01-13T13:01:44.818Z,10.38
2023-01-13T13:04:14.054Z,10.31
2023-01-13T13:06:51.258Z,10.17
2023-01-13T13:09:20.678Z,10.14
2023-01-13T13:12:03.695Z,10.09
2023-01-13T13:14:39.177Z,9.99
2023-01-13T13:17:28.447Z,9.91
2023-01-13T13:19:57.596Z,9.92
2023-01-13T13:22:27.355Z,9.96
2023-01-13T13:24:57.702Z,9.97
2023-01-13T13:27:30.197Z,9.91
2023-01-13T13:30:00.625Z,9.94
2023-01-13T13:33:00.421Z,9.92
2023-01-13T13:36:05.249Z,9.95
2023-01-13T13:39:08.590Z,9.96
2023-01-13T13:41:55.545Z,10.04
2023-01-13T13:44:59.116Z,10.00
2023-01-13T13:47:26.067Z,10.04
2023-01-13T13:49:54.609Z,10.05
2023-01-13T13:52:30.281Z,10.03
2023-01-13T13:55:02.493Z,10.02
2023-01-13T13:57:39.834Z,9.99
2023-01-13T14:00:31.596Z,10.04
2023-01-13T14:03:20.985Z,10.04
2023-01-13T14:05:59.722Z,10.05
2023-01-13T14:08:33.631Z,10.12
2023-01-13T14:11:00.404Z,10.07
2023-01-13T14:13:31.806Z,9.89
2023-01-13T14:16:04.685Z,9.65
2023-01-13T14:18:35.461Z,9.42
2023-01-13T14:21:19.313Z,9.10
2023-01-13T14:24:20.738Z,8.89
2023-01-13T14:26:52.095Z,8.55
2023-01-13T14:29:24.321Z,8.50
2023-01-13T14:31:53.700Z,8.37
2023-01-13T14:34:31.874Z,8.30
2023-01-13T14:37:00.668Z,8.16
2023-01-13T14:39:40.459Z,8.07
2023-01-13T14:42:13.598Z,7.99
2023-01-13T14:44:46.107Z,7.83
2023-01-13T14:47:23.727Z,7.79
2023-01-13T14:50:00.477Z,7.73
2023-01-13T14:52:30.595Z,7.64
2023-01-13T14:55:06.876Z,7.63
2023-01-13T14:57:39.642Z,7.54
2023-01-13T15:00:15.433Z,7.55
2023-01-13T15:02:42.448Z,7.56
2023-01-13T15:05:24.273Z,7.55
2023-01-13T15:08:06.036Z,7.49
2023-01-13T15:10:38.255Z,7.38
2023-01-13T15:13:07.456Z,7.41
2023-01-13T15:15:37.581Z,7.42
2023-01-13T15:18:15.778Z,7.42
2023-01-13T15:20:43.385Z,7.34
2023-01-13T15:23:10.591Z,7.22
2023-01-13T15:25:42.049Z,7.17
2023-01-13T15:28:23.735Z,7.11
2023-01-13T15:30:52.288Z,7.09
2023-01-13T15:33:20.347Z,7.03
2023-01-13T15:35:50.014Z,7.03
2023-01-13T15:38:20.153Z,7.02
2023-01-13T15:40:48.174Z,7.01
2023-01-13T15:43:35.359Z,7.01
2023-01-13T15:46:22.643Z,6.99
2023-01-13T15:48:51.413Z,6.97
2023-01-13T15:51:21.508Z,6.99
2023-01-13T15:53:48.166Z,7.02
2023-01-13T15:56:21.864Z,6.80
2023-01-13T15:58:48.501Z,6.85
2023-01-13T16:01:15.212Z,6.95
2023-01-13T16:03:41.946Z,7.00
2023-01-13T16:06:20.136Z,7.04
2023-01-13T16:08:46.907Z,7.08
2023-01-13T16:11:14.095Z,7.06
2023-01-13T16:13:40.800Z,7.00
2023-01-13T16:16:27.980Z,7.08
2023-01-13T16:18:55.199Z,6.96
2023-01-13T16:21:22.259Z,7.00
2023-01-13T16:23:51.342Z,6.98
2023-01-13T16:26:24.812Z,6.87
2023-01-13T16:28:54.172Z,6.94
2023-01-13T16:31:32.216Z,6.90
2023-01-13T16:34:01.426Z,6.84
2023-01-13T16:36:29.951Z,6.91
2023-01-13T16:38:57.175Z,6.85
2023-01-13T16:41:25.107Z,6.87
2023-01-13T16:43:52.594Z,6.82
2023-01-13T16:46:28.109Z,6.82
2023-01-13T16:48:57.240Z,6.85
2023-01-13T16:51:24.712Z,6.82
2023-01-13T16:53:51.787Z,6.89
2023-01-13T16:56:25.427Z,6.80
2023-01-13T16:58:54.019Z,6.96
2023-01-13T17:01:20.724Z,6.96
2023-01-13T17:03:49.324Z,6.99
2023-01-13T17:06:24.001Z,7.05
2023-01-13T17:08:50.760Z,7.07
2023-01-13T17:11:17.479Z,7.11
2023-01-13T17:13:44.259Z,7.10
2023-01-13T17:16:20.576Z,7.12
2023-01-13T17:18:48.248Z,7.04
2023-01-13T17:21:15.812Z,7.06
2023-01-13T17:23:43.260Z,7.08
2023-01-13T17:26:49.836Z,7.12
2023-01-13T17:29:19.019Z,7.12
2023-01-13T17:31:45.754Z,7.14
2023-01-13T17:34:13.304Z,7.16
2023-01-13T17:36:40.560Z,7.09
2023-01-13T17:39:07.232Z,6.97
2023-01-13T17:41:33.957Z,7.10
2023-01-13T17:44:00.569Z,7.13
2023-01-13T17:46:27.225Z,7.12
2023-01-13T17:48:54.673Z,7.09
2023-01-13T17:51:22.741Z,7.04
2023-01-13T17:53:49.656Z,7.11
2023-01-13T17:56:17.213Z,7.13
2023-01-13T17:58:45.556Z,7.08
2023-01-13T18:01:17.791Z,7.16
2023-01-13T18:03:45.576Z,7.12
2023-01-13T18:06:18.504Z,7.15
2023-01-13T18:08:46.055Z,7.10
2023-01-13T18:11:14.404Z,7.12
2023-01-13T18:13:43.144Z,7.15
2023-01-13T18:16:12.058Z,7.19
2023-01-13T18:18:41.084Z,7.13
2023-01-13T18:21:32.335Z,7.06
2023-01-13T18:24:17.840Z,7.08
2023-01-13T18:27:02.995Z,7.02
2023-01-13T18:29:29.714Z,7.01
2023-01-13T18:31:56.357Z,7.08
2023-01-13T18:34:23.187Z,6.95
2023-01-13T18:36:49.831Z,7.01
2023-01-13T18:39:18.128Z,7.04
2023-01-13T18:42:03.595Z,6.83
2023-01-13T18:44:30.324Z,6.88
2023-01-13T18:46:57.139Z,6.88
2023-01-13T18:49:23.930Z,6.93
2023-01-13T18:51:50.743Z,6.88
2023-01-13T18:54:17.621Z,6.78
2023-01-13T18:56:44.516Z,6.89
2023-01-13T18:59:11.349Z,6.90
2023-01-13T19:01:38.341Z,6.94
2023-01-13T19:04:11.525Z,6.96
2023-01-13T19:06:40.315Z,6.90
2023-01-13T19:09:11.197Z,6.82
2023-01-13T19:11:37.958Z,6.80
2023-01-13T19:14:04.734Z,6.74
2023-01-13T19:16:31.366Z,6.78
2023-01-13T19:18:58.192Z,6.63
2023-01-13T19:21:25.485Z,6.70
2023-01-13T19:23:58.389Z,6.70
2023-01-13T19:26:25.093Z,6.65
2023-01-13T19:28:51.870Z,6.61
2023-01-13T19:31:20.626Z,6.72
2023-01-13T19:33:47.363Z,6.67
2023-01-13T19:36:14.095Z,6.67
2023-01-13T19:38:40.780Z,6.61
2023-01-13T19:41:28.057Z,6.69
2023-01-13T19:44:14.836Z,6.57
2023-01-13T19:46:41.645Z,6.56
2023-01-13T19:49:08.449Z,6.57
2023-01-13T19:51:35.157Z,6.48
2023-01-13T19:54:02.062Z,6.47
2023-01-13T19:56:29.580Z,6.50
2023-01-13T19:58:56.858Z,6.59
2023-01-13T20:01:30.365Z,6.51
2023-01-13T20:04:03.296Z,6.50
2023-01-13T20:06:31.549Z,6.47
2023-01-13T20:08:59.228Z,6.52
2023-01-13T20:11:31.473Z,6.35
2023-01-13T20:13:59.863Z,6.47
2023-01-13T20:16:28.429Z,6.37
2023-01-13T20:18:55.826Z,6.30
2023-01-13T20:21:23.370Z,6.47
2023-01-13T20:23:51.276Z,6.44
2023-01-13T20:26:18.928Z,6.48
2023-01-13T20:28:47.110Z,6.58
2023-01-13T20:31:15.053Z,6.63
2023-01-13T20:33:43.302Z,6.62
2023-01-13T20:36:25.979Z,6.64
2023-01-13T20:38:57.163Z,6.53
2023-01-13T20:41:59.225Z,6.49
2023-01-13T20:44:25.918Z,6.34
2023-01-13T20:46:54.658Z,6.24
2023-01-13T20:49:27.949Z,6.08
2023-01-13T20:51:55.305Z,5.95
2023-01-13T20:54:22.198Z,5.74
2023-01-13T20:56:49.193Z,5.65
2023-01-13T20:59:16.290Z,5.66
2023-01-13T21:01:43.276Z,5.59
2023-01-13T21:04:10.148Z,5.53
2023-01-13T21:06:37.150Z,5.36
2023-01-13T21:09:04.020Z,5.40
2023-01-13T21:11:49.493Z,5.45
2023-01-13T21:14:38.332Z,5.55
2023-01-13T21:17:06.067Z,5.53
2023-01-13T21:19:33.010Z,5.49
2023-01-13T21:21:59.770Z,5.55
2023-01-13T21:24:26.890Z,5.52
2023-01-13T21:26:59.744Z,5.32
2023-01-13T21:29:26.413Z,5.57
2023-01-13T21:31:54.506Z,5.59
2023-01-13T21:34:21.401Z,5.21
2023-01-13T21:36:48.199Z,5.62
2023-01-13T21:39:16.138Z,5.62
2023-01-13T21:42:01.609Z,5.62
2023-01-13T21:44:47.071Z,5.56
2023-01-13T21:47:38.969Z,5.61
2023-01-13T21:50:13.624Z,5.65
2023-01-13T21:52:42.815Z,5.52
2023-01-13T21:55:28.504Z,5.54
2023-01-13T21:57:58.201Z,5.49
2023-01-13T22:00:27.559Z,5.36
2023-01-13T22:02:55.168Z,5.45
2023-01-13T22:05:24.325Z,5.28
2023-01-13T22:07:54.127Z,5.20
2023-01-13T22:10:23.031Z,5.30
2023-01-13T22:12:54.386Z,5.04
2023-01-13T22:15:22.393Z,5.25
2023-01-13T22:17:53.457Z,5.18
2023-01-13T22:20:21.501Z,5.07
2023-01-13T22:22:48.512Z,4.97
2023-01-13T22:25:16.769Z,5.03
2023-01-13T22:27:44.837Z,4.94
2023-01-13T22:30:18.442Z,4.90
2023-01-13T22:32:46.075Z,4.92
2023-01-13T22:35:14.801Z,4.92
2023-01-13T22:37:42.200Z,4.90
2023-01-13T22:40:11.546Z,4.88
2023-01-13T22:42:40.087Z,4.90
2023-01-13T22:45:09.955Z,4.79
2023-01-13T22:47:36.947Z,4.90
2023-01-13T22:50:04.431Z,4.74
2023-01-13T22:52:31.128Z,4.76
2023-01-13T22:54:58.659Z,4.83
2023-01-13T22:57:25.385Z,4.75
2023-01-13T22:59:52.085Z,4.89
2023-01-13T23:02:18.729Z,4.79
2023-01-13T23:04:45.453Z,4.73
2023-01-13T23:07:12.167Z,4.80
2023-01-13T23:09:38.836Z,4.69
2023-01-13T23:12:05.872Z,4.79
2023-01-13T23:14:32.774Z,4.72
2023-01-13T23:16:59.530Z,4.71
2023-01-13T23:19:26.204Z,4.66
2023-01-13T23:21:52.927Z,4.67
2023-01-13T23:24:20.800Z,4.68
2023-01-13T23:26:47.540Z,4.76
2023-01-13T23:29:14.349Z,4.80
2023-01-13T23:31:41.255Z,4.76
2023-01-13T23:34:08.159Z,4.72
2023-01-13T23:36:42.120Z,4.79
2023-01-13T23:39:09.131Z,4.82
2023-01-13T23:41:35.834Z,4.83
2023-01-13T23:44:02.572Z,4.86
2023-01-13T23:46:30.820Z,4.90
2023-01-13T23:48:57.631Z,4.79
2023-01-13T23:51:26.212Z,4.82
2023-01-13T23:53:53.991Z,4.91
2023-01-13T23:56:26.681Z,4.92
2023-01-13T23:58:53.950Z,4.92
